Time;durP1;ratioP1;P1;durP2;ratioP2;P2;SDS_P1;SDS_P2;PMS_P1;PMS_P2;Temp;Humidity;BMP_temperature;BMP_pressure;BME280_temperature;BME280_humidity;BME280_pressure;Samples;Min_cycle;Max_cycle;Signal;HPM_P1;HPM_P2
2022/08/30 00:02:59;;;;;;;14.20;13.10;;;;;;;18.44;85.18;93022.00;5031109;28;20212;-70
2022/08/30 00:05:25;;;;;;;15.00;13.70;;;;;;;18.64;85.12;93028.47;5030833;28;20305;-70
2022/08/30 00:07:50;;;;;;;15.50;14.07;;;;;;;18.53;84.57;93016.69;5030815;28;20225;-70
2022/08/30 00:10:15;;;;;;;15.27;13.87;;;;;;;18.61;84.77;93035.19;5030799;28;20221;-70
2022/08/30 00:12:42;;;;;;;15.70;13.63;;;;;;;18.63;84.52;93040.16;5030558;28;20209;-70
2022/08/30 00:15:08;;;;;;;16.30;12.93;;;;;;;18.61;84.73;93034.38;5030594;28;20224;-70
2022/08/30 00:17:34;;;;;;;14.30;12.73;;;;;;;18.65;84.23;93035.28;5030643;28;20193;-71
2022/08/30 00:20:00;;;;;;;14.93;13.63;;;;;;;18.60;84.09;93024.91;5030910;28;20237;-70
2022/08/30 00:22:26;;;;;;;13.87;12.37;;;;;;;18.70;84.08;93037.78;5030718;28;20190;-69
2022/08/30 00:24:51;;;;;;;14.07;12.87;;;;;;;18.64;84.09;93036.41;5030446;28;20224;-70
2022/08/30 00:27:17;;;;;;;14.47;13.00;;;;;;;18.66;83.77;93039.50;5045352;28;20197;-70
2022/08/30 00:29:43;;;;;;;14.37;13.17;;;;;;;18.62;84.26;93043.88;5050241;28;20250;-69
2022/08/30 00:32:08;;;;;;;14.27;13.17;;;;;;;18.63;84.31;93037.50;5037118;28;20701;-70
2022/08/30 00:34:34;;;;;;;15.03;13.47;;;;;;;18.54;85.08;93034.09;5030244;28;20262;-71
2022/08/30 00:37:00;;;;;;;13.90;12.70;;;;;;;18.40;85.20;93013.16;5030384;28;20185;-70
2022/08/30 00:39:25;;;;;;;14.43;12.90;;;;;;;18.58;84.70;93035.81;5030320;28;20231;-70
2022/08/30 00:41:51;;;;;;;13.77;12.37;;;;;;;18.61;84.48;93034.38;5040169;28;20189;-69
2022/08/30 00:44:16;;;;;;;15.87;14.37;;;;;;;18.41;85.06;93009.41;5029649;28;20232;-70
2022/08/30 00:46:42;;;;;;;14.67;13.43;;;;;;;18.52;85.22;93038.94;5032345;28;20884;-69
2022/08/30 00:49:11;;;;;;;15.00;13.67;;;;;;;18.54;85.54;93040.16;5030255;28;20262;-69
2022/08/30 00:51:38;;;;;;;15.20;13.90;;;;;;;18.45;86.68;93047.34;5030094;28;20200;-70
2022/08/30 00:54:04;;;;;;;14.50;13.10;;;;;;;18.23;86.38;93005.22;5029967;28;20260;-70
2022/08/30 00:56:31;;;;;;;13.30;12.27;;;;;;;18.40;85.50;93026.38;5037879;28;20217;-69
2022/08/30 00:58:59;;;;;;;15.53;14.07;;;;;;;18.53;85.44;93048.41;5049874;28;20293;-69
2022/08/30 01:01:26;;;;;;;15.60;14.23;;;;;;;18.32;85.66;93027.13;5042452;28;20193;-70
2022/08/30 01:03:52;;;;;;;14.97;13.63;;;;;;;18.36;86.63;93049.22;5029732;28;20292;-70
2022/08/30 01:06:18;;;;;;;15.47;13.97;;;;;;;18.37;85.80;93029.59;5030117;28;20245;-70
2022/08/30 01:08:45;;;;;;;15.73;14.20;;;;;;;18.45;85.53;93043.91;5029834;28;20219;-71
2022/08/30 01:11:13;;;;;;;16.13;14.73;;;;;;;18.35;85.72;93036.31;5029815;28;20175;-70
2022/08/30 01:13:39;;;;;;;15.97;14.67;;;;;;;18.34;85.83;93042.66;5029764;28;20178;-70
2022/08/30 01:16:05;;;;;;;16.40;13.83;;;;;;;18.20;86.22;93015.66;5029413;28;20190;-71
2022/08/30 01:18:30;;;;;;;15.37;13.83;;;;;;;18.28;86.30;93028.06;5029740;28;20215;-70
2022/08/30 01:21:33;;;;;;;15.90;14.13;;;;;;;18.18;87.87;93033.72;5030217;28;20179;-70
2022/08/30 01:24:00;;;;;;;15.07;13.43;;;;;;;18.08;87.72;93010.25;5029682;28;20232;-70
2022/08/30 01:26:28;;;;;;;16.00;14.60;;;;;;;17.91;89.56;93032.19;5036944;28;20193;-71
2022/08/30 01:29:01;;;;;;;15.97;14.23;;;;;;;17.92;89.23;93033.75;5049763;28;20231;-70
2022/08/30 01:31:26;;;;;;;14.97;13.37;;;;;;;17.90;89.09;93033.25;5049319;28;20187;-71
2022/08/30 01:33:52;;;;;;;16.70;15.20;;;;;;;17.87;88.82;93014.66;5049273;28;20222;-71
2022/08/30 01:36:19;;;;;;;15.73;14.23;;;;;;;17.83;89.30;93026.91;5043056;28;20207;-70
2022/08/30 01:38:50;;;;;;;15.77;14.37;;;;;;;17.85;89.26;93032.66;5029596;28;20671;-70
2022/08/30 01:41:31;;;;;;;16.67;14.97;;;;;;;17.74;89.72;93015.56;5035401;28;20189;-70
2022/08/30 01:43:59;;;;;;;17.07;15.30;;;;;;;17.83;89.34;93029.56;5031362;28;20230;-70
2022/08/30 01:46:35;;;;;;;16.77;15.47;;;;;;;17.65;90.59;93028.78;5029562;28;20191;-70
2022/08/30 01:49:04;;;;;;;15.43;13.87;;;;;;;17.63;91.15;93031.72;5029470;28;20223;-71
2022/08/30 01:51:30;;;;;;;18.03;15.33;;;;;;;17.73;90.75;93016.69;5029888;28;20176;-71
2022/08/30 01:53:57;;;;;;;16.60;15.03;;;;;;;17.63;91.39;93026.44;5029605;28;20251;-70
2022/08/30 01:56:23;;;;;;;16.57;14.87;;;;;;;17.63;91.26;93031.72;5032018;28;20258;-70
2022/08/30 01:58:50;;;;;;;16.73;15.23;;;;;;;17.55;90.86;93018.53;5033359;28;20247;-71
2022/08/30 02:01:18;;;;;;;16.47;15.00;;;;;;;17.58;91.27;93023.97;5033295;28;20201;-70
2022/08/30 02:03:45;;;;;;;16.27;14.87;;;;;;;17.62;91.18;93028.63;5032777;28;20202;-70
2022/08/30 02:06:13;;;;;;;15.50;13.93;;;;;;;17.54;90.68;93007.19;5032673;28;20188;-70
2022/08/30 02:08:39;;;;;;;17.70;15.43;;;;;;;17.53;91.15;93013.56;5032550;28;20223;-70
2022/08/30 02:11:05;;;;;;;17.20;15.67;;;;;;;17.49;91.91;93025.06;5037551;28;20186;-70
2022/08/30 02:13:31;;;;;;;17.13;15.43;;;;;;;17.47;92.68;93017.44;5035519;28;20184;-72
2022/08/30 02:15:57;;;;;;;19.10;15.50;;;;;;;17.49;92.14;93015.25;5032886;28;20718;-70
2022/08/30 02:18:25;;;;;;;17.63;15.23;;;;;;;17.52;91.89;93014.66;5033292;28;20230;-70
2022/08/30 02:20:51;;;;;;;17.03;15.23;;;;;;;17.50;92.21;93011.56;5032855;28;20199;-70
2022/08/30 02:23:16;;;;;;;17.03;15.27;;;;;;;17.50;91.38;92994.94;5033241;28;20219;-70
2022/08/30 02:25:43;;;;;;;16.57;15.13;;;;;;;17.35;92.31;92998.00;5032116;28;20362;-70
2022/08/30 02:28:09;;;;;;;16.23;14.70;;;;;;;17.51;91.81;93013.09;5033276;28;20185;-72
2022/08/30 02:30:34;;;;;;;16.47;14.97;;;;;;;17.17;92.08;92972.69;5032395;28;20226;-70
2022/08/30 02:33:00;;;;;;;16.17;14.63;;;;;;;17.50;91.91;93008.13;5052704;28;20185;-70
2022/08/30 02:35:26;;;;;;;16.20;14.93;;;;;;;17.39;92.86;93007.63;5052413;28;20237;-70
2022/08/30 02:37:51;;;;;;;15.30;13.80;;;;;;;17.49;91.97;93012.63;5051888;28;20191;-70
2022/08/30 02:40:17;;;;;;;17.07;15.33;;;;;;;17.29;92.59;92992.09;5052472;28;20321;-70
2022/08/30 02:42:43;;;;;;;20.50;14.90;;;;;;;17.27;93.09;92991.63;5033200;28;20254;-69
2022/08/30 02:45:09;;;;;;;16.30;14.37;;;;;;;17.30;92.88;93006.84;5032459;28;20224;-72
2022/08/30 02:47:34;;;;;;;17.83;15.17;;;;;;;17.14;93.22;92978.56;5032475;28;20243;-70
2022/08/30 02:50:05;;;;;;;15.90;14.53;;;;;;;17.20;93.55;92982.59;5032673;28;20216;-69
2022/08/30 02:52:30;;;;;;;15.57;14.27;;;;;;;17.34;93.09;92991.16;5032101;28;20195;-70
2022/08/30 02:54:55;;;;;;;19.10;15.53;;;;;;;17.42;93.29;92988.53;5032247;28;20290;-70
2022/08/30 02:57:21;;;;;;;16.40;14.53;;;;;;;17.41;93.23;92989.63;5046833;28;20199;-69
2022/08/30 02:59:47;;;;;;;17.67;16.13;;;;;;;17.29;93.75;92994.72;5051728;28;20251;-70
2022/08/30 03:02:13;;;;;;;17.30;14.40;;;;;;;17.13;93.98;92969.91;5038251;28;20184;-70
2022/08/30 03:04:38;;;;;;;17.40;15.80;;;;;;;17.15;93.81;92978.25;5031887;28;20253;-70
2022/08/30 03:07:07;;;;;;;16.87;15.27;;;;;;;17.30;94.27;93006.84;5031464;28;20191;-70
2022/08/30 03:09:35;;;;;;;17.10;15.50;;;;;;;17.26;94.97;93010.41;5031991;28;20224;-70
2022/08/30 03:12:00;;;;;;;21.33;15.37;;;;;;;17.01;96.34;92993.44;5039118;28;20210;-70
2022/08/30 03:14:26;;;;;;;16.17;14.60;;;;;;;17.23;95.50;92998.59;5031829;28;20227;-70
2022/08/30 03:16:53;;;;;;;18.23;16.47;;;;;;;17.11;96.01;93003.72;5042362;28;20218;-70
2022/08/30 03:19:19;;;;;;;16.93;15.17;;;;;;;17.00;94.74;92981.34;5051726;28;20222;-69
2022/08/30 03:21:44;;;;;;;18.27;16.47;;;;;;;17.24;95.39;93021.28;5041720;28;20190;-70
2022/08/30 03:24:09;;;;;;;17.23;15.73;;;;;;;17.22;95.08;93015.53;5031726;28;20258;-70
2022/08/30 03:26:35;;;;;;;19.40;16.33;;;;;;;17.15;96.14;93017.09;5031735;28;20187;-70
2022/08/30 03:29:01;;;;;;;17.87;16.03;;;;;;;17.11;96.34;93005.56;5031553;28;20230;-70
2022/08/30 03:31:26;;;;;;;18.50;16.77;;;;;;;17.24;96.43;93023.16;5039047;28;20199;-69
2022/08/30 03:33:52;;;;;;;18.40;16.50;;;;;;;17.32;96.03;93015.22;5051253;28;20241;-68
2022/08/30 03:36:17;;;;;;;18.00;16.20;;;;;;;17.20;96.30;93006.34;5051048;28;20201;-72
2022/08/30 03:38:42;;;;;;;18.57;16.77;;;;;;;17.26;96.41;93013.81;5050873;28;20204;-70
2022/08/30 03:41:08;;;;;;;21.30;16.70;;;;;;;17.23;96.54;93017.06;5050808;28;20206;-70
2022/08/30 03:43:34;;;;;;;17.60;15.97;;;;;;;17.30;96.50;93020.06;5045135;28;20207;-71
2022/08/30 03:46:00;;;;;;;18.57;16.63;;;;;;;17.29;96.03;93013.19;5031258;28;20183;-70
2022/08/30 03:48:26;;;;;;;17.80;16.20;;;;;;;17.32;95.87;93019.75;5031724;28;20190;-69
2022/08/30 03:50:52;;;;;;;18.50;16.73;;;;;;;17.19;96.24;93002.97;5031300;28;20200;-69
2022/08/30 03:53:18;;;;;;;18.80;16.90;;;;;;;17.31;95.99;93010.25;5031466;28;20213;-70
2022/08/30 03:55:43;;;;;;;18.83;16.70;;;;;;;17.10;96.40;92982.91;5030739;28;20229;-70
2022/08/30 03:58:08;;;;;;;19.73;16.73;;;;;;;17.41;96.01;93020.53;5031553;28;20269;-70
2022/08/30 04:00:34;;;;;;;19.67;17.70;;;;;;;17.31;96.76;93024.22;5030815;28;20219;-70
2022/08/30 04:02:59;;;;;;;18.90;17.03;;;;;;;17.35;96.73;93014.59;5031297;28;20183;-70
2022/08/30 04:05:26;;;;;;;21.33;16.10;;;;;;;17.30;96.68;93017.41;5030941;28;20257;-70
2022/08/30 04:07:51;;;;;;;18.33;16.70;;;;;;;17.19;97.26;93000.31;5031251;28;20232;-70
2022/08/30 04:10:20;;;;;;;18.20;16.30;;;;;;;17.16;97.27;92989.59;5030776;28;20246;-71
2022/08/30 04:12:46;;;;;;;17.73;15.93;;;;;;;17.30;96.54;92998.16;5030721;28;20267;-70
2022/08/30 04:15:11;;;;;;;17.87;16.13;;;;;;;17.42;96.71;93028.13;5031131;28;20230;-71
2022/08/30 04:17:37;;;;;;;20.13;17.27;;;;;;;17.33;96.56;93006.22;5046783;28;20182;-70
2022/08/30 04:20:02;;;;;;;19.07;17.07;;;;;;;17.41;96.83;93026.59;5050674;28;20226;-69
2022/08/30 04:22:28;;;;;;;20.97;16.83;;;;;;;17.39;97.13;93031.38;5034431;28;20199;-70
2022/08/30 04:24:53;;;;;;;20.80;17.70;;;;;;;17.41;97.52;93029.22;5030348;28;20238;-70
2022/08/30 04:27:19;;;;;;;20.03;17.17;;;;;;;17.37;97.48;93016.94;5030582;28;20219;-70
2022/08/30 04:29:45;;;;;;;17.77;15.97;;;;;;;17.60;97.00;93032.34;5030319;28;20242;-70
2022/08/30 04:32:11;;;;;;;18.97;16.50;;;;;;;17.65;96.50;93033.28;5030387;28;20204;-70
2022/08/30 04:34:37;;;;;;;18.47;16.50;;;;;;;17.73;96.34;93032.53;5030174;28;20219;-71
2022/08/30 04:37:02;;;;;;;17.63;16.00;;;;;;;17.65;96.62;93023.50;5030719;28;20293;-70
2022/08/30 04:39:27;;;;;;;18.60;16.80;;;;;;;17.82;96.10;93030.66;5029986;28;20224;-70
2022/08/30 04:41:53;;;;;;;27.40;16.90;;;;;;;17.80;95.69;93016.97;5030578;28;20211;-69
2022/08/30 04:44:18;;;;;;;16.50;14.93;;;;;;;17.95;95.91;93034.97;5030010;28;20253;-70
2022/08/30 04:46:43;;;;;;;21.47;18.27;;;;;;;18.03;95.43;93047.41;5030145;28;20195;-69
2022/08/30 04:49:09;;;;;;;19.43;17.40;;;;;;;18.06;95.87;93052.06;5030232;28;20253;-70
2022/08/30 04:51:34;;;;;;;18.37;16.57;;;;;;;18.06;95.89;93049.41;5030680;28;20192;-70
2022/08/30 04:53:59;;;;;;;18.53;16.83;;;;;;;17.95;95.77;93038.41;5029834;28;20917;-70
2022/08/30 04:56:25;;;;;;;19.60;17.70;;;;;;;17.98;94.67;93043.06;5030377;28;20244;-70
2022/08/30 04:58:53;;;;;;;20.20;18.03;;;;;;;18.05;94.53;93069.00;5029759;28;20227;-70
2022/08/30 05:01:22;;;;;;;20.50;18.40;;;;;;;18.01;94.95;93073.38;5036357;28;20214;-70
2022/08/30 05:03:48;;;;;;;19.00;17.10;;;;;;;18.12;95.39;93069.28;5049581;28;20218;-70
2022/08/30 05:06:14;;;;;;;19.10;16.90;;;;;;;18.00;96.17;93066.53;5042918;28;20194;-69
2022/08/30 05:08:40;;;;;;;20.50;18.40;;;;;;;18.15;95.63;93069.47;5049653;28;20448;-69
2022/08/30 05:11:07;;;;;;;22.37;19.13;;;;;;;18.09;94.99;93076.00;5044829;28;20201;-71
2022/08/30 05:13:33;;;;;;;21.40;18.77;;;;;;;18.28;95.71;93078.31;5012692;28;20907;-70
2022/08/30 05:15:59;;;;;;;21.20;18.50;;;;;;;18.30;94.84;93070.84;5013840;28;20210;-70
2022/08/30 05:18:25;;;;;;;21.67;19.37;;;;;;;18.10;94.16;93053.00;5029930;28;20192;-70
2022/08/30 05:21:07;;;;;;;25.27;19.07;;;;;;;18.29;94.38;93074.59;5029840;28;20224;-70
2022/08/30 05:23:33;;;;;;;21.60;19.30;;;;;;;18.22;94.56;93074.28;5061901;28;20283;-69
2022/08/30 05:26:04;;;;;;;19.90;17.97;;;;;;;18.21;94.13;93072.72;5029783;28;20267;-70
2022/08/30 05:28:29;;;;;;;21.30;18.03;;;;;;;18.21;94.40;93070.84;5029797;28;20195;-70
2022/08/30 05:30:55;;;;;;;22.50;18.63;;;;;;;18.15;92.87;93050.19;5033315;28;20238;-72
2022/08/30 05:33:20;;;;;;;19.67;17.60;;;;;;;18.25;94.34;93078.94;5033973;28;20195;-68
2022/08/30 05:35:45;;;;;;;20.73;18.60;;;;;;;18.36;94.75;93074.88;5034753;28;20230;-71
2022/08/30 05:38:11;;;;;;;19.40;17.43;;;;;;;18.19;96.54;93070.41;5053959;28;20198;-71
2022/08/30 05:40:40;;;;;;;22.03;18.60;;;;;;;18.41;94.83;93077.38;5052358;28;20297;-71
2022/08/30 05:43:05;;;;;;;25.87;20.33;;;;;;;18.26;95.23;93075.19;5042462;28;20191;-72
2022/08/30 05:45:30;;;;;;;23.60;18.57;;;;;;;18.22;95.32;93071.63;5033431;28;20581;-70
2022/08/30 05:47:56;;;;;;;23.53;18.93;;;;;;;18.32;93.99;93053.56;5033364;28;20188;-71
2022/08/30 05:50:22;;;;;;;19.73;17.77;;;;;;;18.36;93.68;93062.44;5033695;28;20243;-69
2022/08/30 05:52:47;;;;;;;24.13;19.43;;;;;;;18.28;93.79;93052.66;5032895;28;20184;-70
2022/08/30 05:55:12;;;;;;;22.43;20.23;;;;;;;18.43;94.12;93070.69;5033100;28;20247;-70
2022/08/30 05:57:39;;;;;;;23.53;19.93;;;;;;;18.43;93.87;93064.59;5033331;28;20260;-70
2022/08/30 06:00:09;;;;;;;22.70;20.40;;;;;;;18.52;93.63;93050.28;5032747;28;20255;-70
2022/08/30 06:02:34;;;;;;;22.80;20.60;;;;;;;18.72;93.31;93062.03;5033199;28;20203;-70
2022/08/30 06:05:03;;;;;;;23.40;19.50;;;;;;;18.64;93.35;93050.41;5032761;28;20233;-70
2022/08/30 06:07:28;;;;;;;22.90;20.40;;;;;;;18.85;92.82;93056.53;5032804;28;20220;-70
2022/08/30 06:09:54;;;;;;;22.93;20.50;;;;;;;18.93;91.98;93068.97;5032699;28;20259;-69
2022/08/30 06:12:19;;;;;;;23.20;20.40;;;;;;;19.01;91.15;93070.00;5025873;28;20190;-69
2022/08/30 06:14:45;;;;;;;23.47;19.87;;;;;;;18.97;91.24;93063.81;5013032;28;20264;-70
2022/08/30 06:17:10;;;;;;;21.47;19.40;;;;;;;19.05;92.33;93086.81;5040061;28;20191;-70
2022/08/30 06:19:36;;;;;;;26.53;20.90;;;;;;;19.15;91.52;93078.50;5052523;28;20234;-70
2022/08/30 06:22:01;;;;;;;22.03;19.57;;;;;;;19.53;89.98;93095.16;5052699;28;20181;-70
2022/08/30 06:24:27;;;;;;;21.83;18.97;;;;;;;19.81;86.52;93101.53;5052524;28;20233;-70
2022/08/30 06:26:52;;;;;;;27.27;20.03;;;;;;;19.84;86.03;93106.16;5041235;28;20221;-70
2022/08/30 06:29:19;;;;;;;22.90;19.37;;;;;;;20.19;84.52;93102.16;5032495;28;20237;-70
2022/08/30 06:31:45;;;;;;;22.33;19.73;;;;;;;20.29;83.89;93103.66;5032728;28;20190;-71
2022/08/30 06:34:10;;;;;;;23.15;19.55;;;;;;;20.79;79.76;93116.75;5032834;28;20233;-70
2022/08/30 06:36:37;;;;;;;23.63;19.23;;;;;;;20.81;80.29;93119.84;5032518;28;20186;-70
2022/08/30 06:39:03;;;;;;;22.88;18.98;;;;;;;20.22;83.58;93093.56;5032261;28;20289;-70
2022/08/30 06:41:31;;;;;;;23.95;19.23;;;;;;;20.58;82.19;93117.56;5031891;28;20215;-71
2022/08/30 06:43:59;;;;;;;24.10;19.80;;;;;;;20.34;83.07;93120.13;5031067;28;20222;-71
2022/08/30 06:46:28;;;;;;;21.33;19.33;;;;;;;20.22;82.95;93116.66;5032453;28;20257;-69
2022/08/30 06:48:54;;;;;;;28.43;21.10;;;;;;;20.01;85.71;93102.59;5032207;28;20228;-70
2022/08/30 06:51:26;;;;;;;25.02;18.08;;;;;;;20.17;85.32;93100.97;5032579;28;20232;-70
2022/08/30 06:53:52;;;;;;;25.75;20.48;;;;;;;20.28;85.70;93110.06;5032049;28;20280;-70
2022/08/30 06:56:18;;;;;;;21.80;18.95;;;;;;;20.60;84.64;93120.69;5032113;28;20183;-71
2022/08/30 06:58:44;;;;;;;20.90;18.67;;;;;;;20.30;83.81;93127.19;5032046;28;20191;-71
2022/08/30 07:01:12;;;;;;;22.23;18.42;;;;;;;20.77;83.91;93118.94;5032033;28;20189;-71
2022/08/30 07:03:38;;;;;;;19.45;17.42;;;;;;;21.08;81.31;93125.34;5031555;28;20218;-70
2022/08/30 07:06:03;;;;;;;19.95;17.85;;;;;;;21.46;78.60;93130.34;5032103;28;20194;-71
2022/08/30 07:08:29;;;;;;;21.00;18.92;;;;;;;20.68;82.54;93122.44;5031669;28;20228;-70
2022/08/30 07:10:54;;;;;;;21.70;19.23;;;;;;;19.93;85.62;93112.19;5031217;28;20569;-70
2022/08/30 07:13:22;;;;;;;22.00;19.15;;;;;;;20.08;85.29;93121.41;5016848;28;20186;-70
2022/08/30 07:15:49;;;;;;;22.75;19.90;;;;;;;20.90;82.29;93117.88;5013987;28;20251;-71
2022/08/30 07:21:06;;;;;;;20.38;18.25;;;;;;;21.08;81.90;93127.22;5031867;28;20264;-70
2022/08/30 07:23:31;;;;;;;21.30;19.05;;;;;;;21.03;81.76;93130.09;5030305;28;20203;-71
2022/08/30 07:25:56;;;;;;;18.73;16.92;;;;;;;20.76;83.73;93115.53;5031368;28;20190;-70
2022/08/30 07:28:22;;;;;;;20.23;18.30;;;;;;;21.11;81.45;93127.34;5031981;28;20189;-70
2022/08/30 07:30:47;;;;;;;20.10;18.00;;;;;;;20.57;83.00;93134.59;5030740;28;20295;-72
2022/08/30 07:33:13;;;;;;;18.70;16.73;;;;;;;20.10;86.89;93127.97;5031917;28;20183;-70
2022/08/30 07:35:38;;;;;;;21.33;19.25;;;;;;;19.82;87.28;93126.91;5030948;28;20965;-72
2022/08/30 07:38:04;;;;;;;22.10;18.52;;;;;;;20.44;85.63;93133.00;5031565;28;20240;-69
2022/08/30 07:40:29;;;;;;;26.00;20.08;;;;;;;20.69;83.74;93133.84;5031169;28;20238;-70
2022/08/30 07:42:55;;;;;;;22.50;19.55;;;;;;;20.41;85.23;93119.59;5031179;28;20182;-70
2022/08/30 07:45:20;;;;;;;21.60;19.23;;;;;;;20.82;84.27;93139.97;5031082;28;20242;-69
2022/08/30 07:47:45;;;;;;;20.53;18.40;;;;;;;20.23;87.46;93137.53;5031292;28;20190;-70
2022/08/30 07:50:11;;;;;;;21.67;19.40;;;;;;;20.31;87.40;93136.69;5031347;28;20294;-69
2022/08/30 07:52:37;;;;;;;21.48;19.13;;;;;;;20.31;87.11;93133.28;5031117;28;20190;-70
2022/08/30 07:55:03;;;;;;;21.02;18.40;;;;;;;20.39;87.21;93130.53;5030998;28;20223;-70
2022/08/30 07:57:32;;;;;;;28.98;19.40;;;;;;;19.95;88.08;93111.84;5046693;28;20258;-71
2022/08/30 07:59:57;;;;;;;21.92;19.63;;;;;;;20.19;88.32;93139.28;5050681;28;20229;-72
2022/08/30 08:02:23;;;;;;;21.92;18.80;;;;;;;19.81;89.45;93125.38;5035498;28;20183;-69
2022/08/30 08:04:48;;;;;;;20.70;18.52;;;;;;;19.66;90.19;93138.41;5030377;28;20306;-71
2022/08/30 08:07:14;;;;;;;23.60;18.90;;;;;;;19.66;90.89;93146.34;5030576;28;20223;-71
2022/08/30 08:09:39;;;;;;;19.33;17.25;;;;;;;19.74;90.02;93148.94;5030727;28;20251;-71
2022/08/30 08:12:06;;;;;;;21.63;18.23;;;;;;;19.56;90.06;93158.09;5025478;28;20190;-70
2022/08/30 08:14:32;;;;;;;25.13;19.40;;;;;;;19.56;90.25;93128.94;5011012;28;20308;-70
2022/08/30 08:16:58;;;;;;;20.40;18.37;;;;;;;19.57;91.36;93162.28;5022762;28;20253;-70
2022/08/30 08:19:24;;;;;;;20.70;18.63;;;;;;;19.12;93.26;93150.63;5030741;28;20751;-70
2022/08/30 08:21:49;;;;;;;23.37;20.13;;;;;;;19.41;93.42;93158.63;5041234;28;20741;-70
2022/08/30 08:24:15;;;;;;;25.27;19.27;;;;;;;19.94;91.48;93158.00;5050231;28;21026;-70
2022/08/30 08:26:41;;;;;;;24.23;19.23;;;;;;;19.92;90.49;93153.00;5030356;28;20671;-70
2022/08/30 08:29:08;;;;;;;24.23;20.30;;;;;;;20.08;91.22;93159.31;5030317;28;20249;-72
2022/08/30 08:31:35;;;;;;;23.77;18.60;;;;;;;19.72;91.69;93143.19;5038518;28;20650;-70
2022/08/30 08:34:04;;;;;;;20.13;18.13;;;;;;;19.87;92.89;93155.09;5049910;28;20294;-70
2022/08/30 08:36:30;;;;;;;20.17;18.07;;;;;;;20.29;90.76;93165.44;5042278;28;20564;-70
2022/08/30 08:38:56;;;;;;;20.20;18.17;;;;;;;20.41;89.01;93146.91;5029960;28;21272;-70
2022/08/30 08:41:25;;;;;;;20.40;18.25;;;;;;;20.12;89.09;93154.94;5037078;28;20192;-70
2022/08/30 08:43:50;;;;;;;19.97;17.93;;;;;;;20.62;87.38;93166.22;5032815;28;20245;-70
2022/08/30 08:46:26;;;;;;;20.20;18.00;;;;;;;20.84;83.63;93173.03;5030312;28;20198;-70
2022/08/30 08:48:56;;;;;;;19.50;17.08;;;;;;;20.96;82.86;93170.47;5029968;28;20222;-70
2022/08/30 08:54:18;;;;;;;23.95;17.13;;;;;;;20.90;80.02;93163.78;5049743;28;20300;-71
2022/08/30 08:56:43;;;;;;;18.38;16.67;;;;;;;20.82;78.57;93171.81;5039695;28;20189;-70
2022/08/30 08:59:10;;;;;;;18.55;16.85;;;;;;;21.17;76.59;93162.44;5030384;28;20224;-70
2022/08/30 09:01:39;;;;;;;18.25;15.90;;;;;;;21.28;76.25;93160.88;5038151;28;20261;-70
2022/08/30 09:04:11;;;;;;;17.73;16.10;;;;;;;21.32;75.76;93161.78;5049040;28;20243;-70
2022/08/30 09:06:55;;;;;;;17.52;15.73;;;;;;;22.08;74.24;93160.00;5049623;28;20249;-70
2022/08/30 09:09:26;;;;;;;17.77;15.82;;;;;;;22.47;72.89;93156.59;5049792;28;20245;-70
2022/08/30 09:11:51;;;;;;;16.75;15.07;;;;;;;22.30;74.24;93154.19;5045665;28;20192;-70
2022/08/30 09:14:28;;;;;;;15.15;13.95;;;;;;;22.32;73.36;93154.63;5029890;28;20234;-69
2022/08/30 09:17:11;;;;;;;18.73;15.07;;;;;;;23.36;71.64;93153.28;5029539;28;20189;-70
2022/08/30 09:19:39;;;;;;;16.63;14.93;;;;;;;24.27;69.86;93153.84;5029617;28;20229;-70
2022/08/30 09:22:34;;;;;;;16.13;14.63;;;;;;;24.68;68.28;93159.34;5042386;28;20181;-70
2022/08/30 09:25:01;;;;;;;15.35;13.95;;;;;;;23.94;63.91;93156.16;5049283;28;20215;-70
2022/08/30 09:27:37;;;;;;;14.60;13.40;;;;;;;24.85;61.57;93166.13;5033605;28;20205;-70
2022/08/30 09:30:05;;;;;;;13.25;12.20;;;;;;;23.75;58.09;93156.88;5029435;28;20263;-71
2022/08/30 09:32:34;;;;;;;13.25;11.90;;;;;;;23.73;59.21;93156.47;5029515;28;20177;-71
2022/08/30 09:34:59;;;;;;;15.70;12.27;;;;;;;24.18;58.28;93145.28;5029698;28;20268;-70
2022/08/30 09:37:33;;;;;;;11.85;10.95;;;;;;;24.85;54.11;93153.56;5029665;28;20213;-70
2022/08/30 09:39:58;;;;;;;13.50;12.25;;;;;;;24.88;53.57;93142.16;5029393;28;20243;-70
2022/08/30 09:42:27;;;;;;;14.88;13.48;;;;;;;24.90;61.84;93161.28;5039481;28;20171;-70
2022/08/30 09:45:09;;;;;;;19.38;12.43;;;;;;;25.10;59.08;93151.34;5029488;28;20224;-70
2022/08/30 09:47:37;;;;;;;15.15;13.48;;;;;;;24.89;62.80;93145.59;5029528;28;20253;-72
2022/08/30 09:50:09;;;;;;;19.90;14.45;;;;;;;24.65;63.68;93149.34;5029129;28;20264;-71
2022/08/30 09:53:08;;;;;;;16.52;14.80;;;;;;;24.57;65.82;93146.84;5029894;28;20200;-70
2022/08/30 09:55:39;;;;;;;17.15;15.63;;;;;;;24.72;66.40;93122.00;5028970;28;20243;-70
2022/08/30 09:58:35;;;;;;;17.70;16.05;;;;;;;24.90;64.83;93160.53;5029809;28;20192;-70
2022/08/30 10:01:13;;;;;;;20.60;14.50;;;;;;;25.01;63.69;93150.81;5028666;28;20209;-70
2022/08/30 10:03:39;;;;;;;17.55;15.70;;;;;;;24.84;64.35;93148.56;5029215;28;20221;-70
2022/08/30 10:06:25;;;;;;;16.65;14.73;;;;;;;25.05;62.44;93147.06;5029357;28;20225;-70
2022/08/30 10:08:51;;;;;;;14.73;13.23;;;;;;;25.19;62.09;93151.88;5029150;28;20231;-70
2022/08/30 10:11:19;;;;;;;14.95;13.43;;;;;;;25.41;60.27;93145.03;5029551;28;20211;-70
2022/08/30 10:13:51;;;;;;;14.52;13.50;;;;;;;25.28;57.19;93134.47;5060802;28;20182;-70
2022/08/30 10:16:19;;;;;;;13.43;12.25;;;;;;;25.17;58.90;93127.41;5030409;28;20284;-71
2022/08/30 10:19:16;;;;;;;14.10;12.65;;;;;;;25.83;55.87;93133.09;5032759;28;20209;-70
2022/08/30 10:22:01;;;;;;;14.98;13.50;;;;;;;26.04;53.49;93133.44;5020441;28;20218;-70
2022/08/30 10:24:45;;;;;;;18.83;13.85;;;;;;;25.58;55.93;93121.25;5032408;28;20233;-71
2022/08/30 10:27:19;;;;;;;15.85;13.85;;;;;;;25.33;57.56;93135.31;5032550;28;20204;-71
2022/08/30 10:29:47;;;;;;;17.45;13.98;;;;;;;25.17;57.69;93125.50;5032484;28;20222;-70
2022/08/30 10:32:28;;;;;;;14.02;12.68;;;;;;;24.99;58.67;93123.66;5045790;28;20205;-70
2022/08/30 10:35:00;;;;;;;15.20;13.65;;;;;;;24.95;59.52;93125.50;5052080;28;20245;-71
2022/08/30 10:37:28;;;;;;;16.13;14.52;;;;;;;25.21;61.15;93126.34;5036928;28;20231;-70
2022/08/30 10:43:00;;;;;;;16.75;13.43;;;;;;;25.32;57.40;93113.16;5052481;28;20203;-70
2022/08/30 10:45:28;;;;;;;16.02;14.32;;;;;;;25.24;56.45;93108.81;5052188;28;20226;-70
2022/08/30 10:48:16;;;;;;;14.88;13.38;;;;;;;25.50;56.91;93111.56;5032493;28;20187;-70
2022/08/30 10:50:52;;;;;;;18.90;14.68;;;;;;;25.22;57.97;93113.75;5031957;28;20223;-69
2022/08/30 10:53:27;;;;;;;17.63;15.73;;;;;;;25.33;58.78;93122.75;5033605;28;20197;-70
2022/08/30 10:55:59;;;;;;;21.95;16.33;;;;;;;25.25;59.88;93099.66;5031635;28;20216;-70
2022/08/30 10:58:24;;;;;;;22.45;16.63;;;;;;;25.25;61.42;93099.66;5032410;28;20205;-70
2022/08/30 11:01:02;;;;;;;23.48;16.85;;;;;;;25.27;61.46;93105.44;5031590;28;20231;-70
2022/08/30 11:04:02;;;;;;;18.30;16.17;;;;;;;25.29;60.10;93111.22;5032075;28;20190;-72
2022/08/30 11:06:39;;;;;;;17.52;15.82;;;;;;;25.43;59.84;93114.16;5039578;28;20193;-70
2022/08/30 11:09:32;;;;;;;22.00;16.00;;;;;;;25.25;59.22;93105.00;5051495;28;20242;-71
2022/08/30 11:12:14;;;;;;;17.65;15.75;;;;;;;25.25;60.24;93099.66;5046775;28;20195;-70
2022/08/30 11:14:44;;;;;;;19.00;16.38;;;;;;;25.55;58.35;93103.25;5031706;28;20249;-70
2022/08/30 11:17:37;;;;;;;18.08;15.57;;;;;;;25.71;57.83;93098.53;5031932;28;20230;-70
2022/08/30 11:20:04;;;;;;;17.35;15.00;;;;;;;25.88;57.56;93092.66;5031686;28;20226;-70
2022/08/30 11:22:36;;;;;;;17.95;16.25;;;;;;;25.81;58.21;93089.09;5047771;28;20193;-70
2022/08/30 11:25:10;;;;;;;20.00;15.57;;;;;;;25.81;58.04;93095.22;5051326;28;20228;-70
2022/08/30 11:27:55;;;;;;;16.73;15.13;;;;;;;25.62;58.38;93084.63;5034086;28;20189;-70
2022/08/30 11:30:23;;;;;;;19.55;15.32;;;;;;;25.61;58.12;93082.31;5032116;28;20294;-71
2022/08/30 11:33:25;;;;;;;17.67;15.73;;;;;;;25.29;58.80;93060.41;5050040;28;20915;-70